sensor_id;sensor_type;location;lat;lon;timestamp;P1;durP1;ratioP1;P2;durP2;ratioP2
2021;SDS011;1015;49.756;6.994;2023-01-25T00:00:52;40.27;;;18.40;;
2021;SDS011;1015;49.756;6.994;2023-01-25T00:03:19;39.00;;;21.50;;
2021;SDS011;1015;49.756;6.994;2023-01-25T00:05:46;45.70;;;23.37;;
2021;SDS011;1015;49.756;6.994;2023-01-25T00:08:15;44.30;;;19.67;;
2021;SDS011;1015;49.756;6.994;2023-01-25T00:10:42;40.10;;;20.43;;
2021;SDS011;1015;49.756;6.994;2023-01-25T00:13:09;46.60;;;19.07;;
2021;SDS011;1015;49.756;6.994;2023-01-25T00:15:37;38.13;;;19.83;;
2021;SDS011;1015;49.756;6.994;2023-01-25T00:18:04;37.17;;;17.73;;
2021;SDS011;1015;49.756;6.994;2023-01-25T00:20:31;37.97;;;18.47;;
2021;SDS011;1015;49.756;6.994;2023-01-25T00:22:58;48.80;;;19.07;;
2021;SDS011;1015;49.756;6.994;2023-01-25T00:25:27;37.33;;;19.97;;
2021;SDS011;1015;49.756;6.994;2023-01-25T00:27:54;43.57;;;22.00;;
2021;SDS011;1015;49.756;6.994;2023-01-25T00:30:21;43.07;;;20.90;;
2021;SDS011;1015;49.756;6.994;2023-01-25T00:32:52;38.70;;;18.93;;
2021;SDS011;1015;49.756;6.994;2023-01-25T00:35:19;42.77;;;21.47;;
2021;SDS011;1015;49.756;6.994;2023-01-25T00:37:47;43.03;;;22.57;;
2021;SDS011;1015;49.756;6.994;2023-01-25T00:40:15;38.80;;;19.80;;
2021;SDS011;1015;49.756;6.994;2023-01-25T00:42:43;44.13;;;20.00;;
2021;SDS011;1015;49.756;6.994;2023-01-25T00:45:11;39.23;;;19.10;;
2021;SDS011;1015;49.756;6.994;2023-01-25T00:47:38;38.13;;;19.60;;
2021;SDS011;1015;49.756;6.994;2023-01-25T00:50:06;41.63;;;17.37;;
2021;SDS011;1015;49.756;6.994;2023-01-25T00:52:34;38.60;;;18.40;;
2021;SDS011;1015;49.756;6.994;2023-01-25T00:55:01;41.40;;;18.47;;
2021;SDS011;1015;49.756;6.994;2023-01-25T00:57:28;39.10;;;19.60;;
2021;SDS011;1015;49.756;6.994;2023-01-25T00:59:57;41.00;;;19.37;;
2021;SDS011;1015;49.756;6.994;2023-01-25T01:02:24;41.93;;;20.33;;
2021;SDS011;1015;49.756;6.994;2023-01-25T01:04:51;36.97;;;19.60;;
2021;SDS011;1015;49.756;6.994;2023-01-25T01:07:20;38.30;;;17.90;;
2021;SDS011;1015;49.756;6.994;2023-01-25T01:09:48;49.40;;;18.63;;
2021;SDS011;1015;49.756;6.994;2023-01-25T01:12:15;38.83;;;19.17;;
2021;SDS011;1015;49.756;6.994;2023-01-25T01:14:42;39.00;;;15.77;;
2021;SDS011;1015;49.756;6.994;2023-01-25T01:17:11;38.20;;;19.63;;
2021;SDS011;1015;49.756;6.994;2023-01-25T01:19:38;35.93;;;18.37;;
2021;SDS011;1015;49.756;6.994;2023-01-25T01:22:06;38.77;;;18.00;;
2021;SDS011;1015;49.756;6.994;2023-01-25T01:24:33;44.37;;;18.50;;
2021;SDS011;1015;49.756;6.994;2023-01-25T01:27:00;47.80;;;19.90;;
2021;SDS011;1015;49.756;6.994;2023-01-25T01:29:27;53.90;;;17.60;;
2021;SDS011;1015;49.756;6.994;2023-01-25T01:31:54;40.07;;;18.50;;
2021;SDS011;1015;49.756;6.994;2023-01-25T01:34:23;40.13;;;18.80;;
2021;SDS011;1015;49.756;6.994;2023-01-25T01:36:50;41.63;;;19.00;;
2021;SDS011;1015;49.756;6.994;2023-01-25T01:39:17;41.00;;;18.20;;
2021;SDS011;1015;49.756;6.994;2023-01-25T01:41:45;47.33;;;20.50;;
2021;SDS011;1015;49.756;6.994;2023-01-25T01:44:13;54.63;;;22.63;;
2021;SDS011;1015;49.756;6.994;2023-01-25T01:46:50;51.00;;;19.97;;
2021;SDS011;1015;49.756;6.994;2023-01-25T01:49:18;49.43;;;21.37;;
2021;SDS011;1015;49.756;6.994;2023-01-25T01:51:48;47.33;;;19.57;;
2021;SDS011;1015;49.756;6.994;2023-01-25T01:54:17;35.70;;;15.37;;
2021;SDS011;1015;49.756;6.994;2023-01-25T01:56:46;43.37;;;21.03;;
2021;SDS011;1015;49.756;6.994;2023-01-25T01:59:14;41.80;;;20.97;;
2021;SDS011;1015;49.756;6.994;2023-01-25T02:01:42;50.80;;;21.40;;
2021;SDS011;1015;49.756;6.994;2023-01-25T02:04:10;43.43;;;19.67;;
2021;SDS011;1015;49.756;6.994;2023-01-25T02:06:38;47.67;;;18.77;;
2021;SDS011;1015;49.756;6.994;2023-01-25T02:09:09;47.90;;;21.30;;
2021;SDS011;1015;49.756;6.994;2023-01-25T02:11:36;44.23;;;17.90;;
2021;SDS011;1015;49.756;6.994;2023-01-25T02:14:04;47.40;;;21.57;;
2021;SDS011;1015;49.756;6.994;2023-01-25T02:16:31;46.60;;;18.63;;
2021;SDS011;1015;49.756;6.994;2023-01-25T02:18:59;76.33;;;30.23;;
2021;SDS011;1015;49.756;6.994;2023-01-25T02:21:29;136.53;;;41.87;;
2021;SDS011;1015;49.756;6.994;2023-01-25T02:23:58;65.00;;;25.00;;
2021;SDS011;1015;49.756;6.994;2023-01-25T02:26:28;52.40;;;23.77;;
2021;SDS011;1015;49.756;6.994;2023-01-25T02:28:57;89.13;;;30.20;;
2021;SDS011;1015;49.756;6.994;2023-01-25T02:31:25;75.20;;;26.60;;
2021;SDS011;1015;49.756;6.994;2023-01-25T02:33:52;78.97;;;31.20;;
2021;SDS011;1015;49.756;6.994;2023-01-25T02:36:21;60.97;;;28.57;;
2021;SDS011;1015;49.756;6.994;2023-01-25T02:38:52;52.60;;;23.70;;
2021;SDS011;1015;49.756;6.994;2023-01-25T02:41:22;47.40;;;21.33;;
2021;SDS011;1015;49.756;6.994;2023-01-25T02:43:51;42.70;;;20.37;;
2021;SDS011;1015;49.756;6.994;2023-01-25T02:46:20;45.27;;;21.67;;
2021;SDS011;1015;49.756;6.994;2023-01-25T02:48:50;59.30;;;18.97;;
2021;SDS011;1015;49.756;6.994;2023-01-25T02:51:17;56.97;;;20.67;;
2021;SDS011;1015;49.756;6.994;2023-01-25T02:53:45;63.43;;;32.47;;
2021;SDS011;1015;49.756;6.994;2023-01-25T02:56:12;49.40;;;21.90;;
2021;SDS011;1015;49.756;6.994;2023-01-25T02:58:39;48.07;;;22.00;;
2021;SDS011;1015;49.756;6.994;2023-01-25T03:01:08;46.43;;;21.90;;
2021;SDS011;1015;49.756;6.994;2023-01-25T03:03:35;43.50;;;19.63;;
2021;SDS011;1015;49.756;6.994;2023-01-25T03:06:02;43.53;;;19.50;;
2021;SDS011;1015;49.756;6.994;2023-01-25T03:08:30;45.67;;;19.10;;
2021;SDS011;1015;49.756;6.994;2023-01-25T03:10:57;44.90;;;18.77;;
2021;SDS011;1015;49.756;6.994;2023-01-25T03:13:25;42.20;;;18.47;;
2021;SDS011;1015;49.756;6.994;2023-01-25T03:16:00;42.83;;;18.10;;
2021;SDS011;1015;49.756;6.994;2023-01-25T03:18:28;44.17;;;19.60;;
2021;SDS011;1015;49.756;6.994;2023-01-25T03:20:56;54.77;;;21.50;;
2021;SDS011;1015;49.756;6.994;2023-01-25T03:23:23;51.83;;;19.67;;
2021;SDS011;1015;49.756;6.994;2023-01-25T03:25:50;52.43;;;17.93;;
2021;SDS011;1015;49.756;6.994;2023-01-25T03:28:17;61.73;;;20.20;;
2021;SDS011;1015;49.756;6.994;2023-01-25T03:30:44;61.90;;;21.10;;
2021;SDS011;1015;49.756;6.994;2023-01-25T03:33:15;48.63;;;20.70;;
2021;SDS011;1015;49.756;6.994;2023-01-25T03:35:43;55.27;;;19.53;;
2021;SDS011;1015;49.756;6.994;2023-01-25T03:38:10;73.10;;;19.10;;
2021;SDS011;1015;49.756;6.994;2023-01-25T03:40:37;57.87;;;21.00;;
2021;SDS011;1015;49.756;6.994;2023-01-25T03:43:05;49.60;;;19.30;;
2021;SDS011;1015;49.756;6.994;2023-01-25T03:45:32;73.17;;;19.80;;
2021;SDS011;1015;49.756;6.994;2023-01-25T03:47:59;51.23;;;18.83;;
2021;SDS011;1015;49.756;6.994;2023-01-25T03:50:26;53.17;;;19.20;;
2021;SDS011;1015;49.756;6.994;2023-01-25T03:52:55;58.83;;;20.77;;
2021;SDS011;1015;49.756;6.994;2023-01-25T03:55:26;50.33;;;19.40;;
2021;SDS011;1015;49.756;6.994;2023-01-25T03:57:53;52.50;;;19.60;;
2021;SDS011;1015;49.756;6.994;2023-01-25T04:00:21;53.60;;;19.00;;
2021;SDS011;1015;49.756;6.994;2023-01-25T04:02:48;57.20;;;20.70;;
2021;SDS011;1015;49.756;6.994;2023-01-25T04:05:15;64.70;;;18.93;;
2021;SDS011;1015;49.756;6.994;2023-01-25T04:07:42;79.90;;;19.17;;
2021;SDS011;1015;49.756;6.994;2023-01-25T04:10:11;60.07;;;18.83;;
2021;SDS011;1015;49.756;6.994;2023-01-25T04:12:38;50.43;;;18.87;;
2021;SDS011;1015;49.756;6.994;2023-01-25T04:15:06;51.83;;;17.17;;
2021;SDS011;1015;49.756;6.994;2023-01-25T04:17:33;56.07;;;18.23;;
2021;SDS011;1015;49.756;6.994;2023-01-25T04:20:01;54.53;;;17.97;;
2021;SDS011;1015;49.756;6.994;2023-01-25T04:22:28;53.70;;;16.80;;
2021;SDS011;1015;49.756;6.994;2023-01-25T04:24:55;52.50;;;20.00;;
2021;SDS011;1015;49.756;6.994;2023-01-25T04:27:24;57.80;;;19.30;;
2021;SDS011;1015;49.756;6.994;2023-01-25T04:29:51;58.77;;;19.30;;
2021;SDS011;1015;49.756;6.994;2023-01-25T04:32:18;63.40;;;18.73;;
2021;SDS011;1015;49.756;6.994;2023-01-25T04:34:45;63.67;;;18.10;;
2021;SDS011;1015;49.756;6.994;2023-01-25T04:37:12;69.13;;;19.47;;
2021;SDS011;1015;49.756;6.994;2023-01-25T04:39:39;66.17;;;19.40;;
2021;SDS011;1015;49.756;6.994;2023-01-25T04:42:07;54.90;;;20.13;;
2021;SDS011;1015;49.756;6.994;2023-01-25T04:44:35;54.20;;;17.00;;
2021;SDS011;1015;49.756;6.994;2023-01-25T04:47:02;111.70;;;18.10;;
2021;SDS011;1015;49.756;6.994;2023-01-25T04:49:30;74.27;;;19.90;;
2021;SDS011;1015;49.756;6.994;2023-01-25T04:51:57;52.23;;;18.90;;
2021;SDS011;1015;49.756;6.994;2023-01-25T04:54:24;55.40;;;19.20;;
2021;SDS011;1015;49.756;6.994;2023-01-25T04:56:51;60.87;;;18.03;;
2021;SDS011;1015;49.756;6.994;2023-01-25T04:59:18;112.83;;;20.13;;
2021;SDS011;1015;49.756;6.994;2023-01-25T05:01:47;79.13;;;19.03;;
2021;SDS011;1015;49.756;6.994;2023-01-25T05:04:14;52.77;;;18.90;;
2021;SDS011;1015;49.756;6.994;2023-01-25T05:06:41;86.83;;;18.03;;
2021;SDS011;1015;49.756;6.994;2023-01-25T05:09:09;102.47;;;19.47;;
2021;SDS011;1015;49.756;6.994;2023-01-25T05:11:36;156.10;;;20.10;;
2021;SDS011;1015;49.756;6.994;2023-01-25T05:14:03;169.07;;;23.50;;
2021;SDS011;1015;49.756;6.994;2023-01-25T05:16:30;249.70;;;24.90;;
2021;SDS011;1015;49.756;6.994;2023-01-25T05:18:59;55.33;;;19.30;;
2021;SDS011;1015;49.756;6.994;2023-01-25T05:21:26;67.23;;;19.20;;
2021;SDS011;1015;49.756;6.994;2023-01-25T05:24:11;66.00;;;20.00;;
2021;SDS011;1015;49.756;6.994;2023-01-25T05:26:38;84.40;;;21.73;;
2021;SDS011;1015;49.756;6.994;2023-01-25T05:29:23;72.00;;;20.00;;
2021;SDS011;1015;49.756;6.994;2023-01-25T05:34:56;79.80;;;18.30;;
2021;SDS011;1015;49.756;6.994;2023-01-25T05:37:25;63.80;;;16.87;;
2021;SDS011;1015;49.756;6.994;2023-01-25T05:39:52;67.00;;;18.73;;
2021;SDS011;1015;49.756;6.994;2023-01-25T05:42:19;47.00;;;16.83;;
2021;SDS011;1015;49.756;6.994;2023-01-25T05:44:47;55.00;;;21.13;;
2021;SDS011;1015;49.756;6.994;2023-01-25T05:47:15;57.30;;;24.90;;
2021;SDS011;1015;49.756;6.994;2023-01-25T05:49:42;70.53;;;20.47;;
2021;SDS011;1015;49.756;6.994;2023-01-25T05:52:12;77.23;;;34.00;;
2021;SDS011;1015;49.756;6.994;2023-01-25T05:54:40;87.60;;;39.47;;
2021;SDS011;1015;49.756;6.994;2023-01-25T05:57:07;64.03;;;24.03;;
2021;SDS011;1015;49.756;6.994;2023-01-25T05:59:34;62.53;;;25.37;;
2021;SDS011;1015;49.756;6.994;2023-01-25T06:02:01;74.40;;;37.87;;
2021;SDS011;1015;49.756;6.994;2023-01-25T06:04:28;53.47;;;20.67;;
2021;SDS011;1015;49.756;6.994;2023-01-25T06:06:56;55.80;;;17.87;;
2021;SDS011;1015;49.756;6.994;2023-01-25T06:09:24;60.37;;;17.10;;
2021;SDS011;1015;49.756;6.994;2023-01-25T06:11:52;53.50;;;16.40;;
2021;SDS011;1015;49.756;6.994;2023-01-25T06:14:19;43.97;;;19.33;;
2021;SDS011;1015;49.756;6.994;2023-01-25T06:16:47;42.23;;;16.73;;
2021;SDS011;1015;49.756;6.994;2023-01-25T06:19:15;53.30;;;26.33;;
2021;SDS011;1015;49.756;6.994;2023-01-25T06:21:42;45.37;;;19.80;;
2021;SDS011;1015;49.756;6.994;2023-01-25T06:24:09;55.20;;;19.00;;
2021;SDS011;1015;49.756;6.994;2023-01-25T06:26:38;50.20;;;19.67;;
2021;SDS011;1015;49.756;6.994;2023-01-25T06:29:05;51.07;;;18.70;;
2021;SDS011;1015;49.756;6.994;2023-01-25T06:31:32;48.40;;;19.63;;
2021;SDS011;1015;49.756;6.994;2023-01-25T06:34:00;46.67;;;15.47;;
2021;SDS011;1015;49.756;6.994;2023-01-25T06:36:30;50.10;;;16.33;;
2021;SDS011;1015;49.756;6.994;2023-01-25T06:38:57;48.90;;;17.67;;
2021;SDS011;1015;49.756;6.994;2023-01-25T06:41:25;44.27;;;18.23;;
2021;SDS011;1015;49.756;6.994;2023-01-25T06:43:53;55.30;;;16.17;;
2021;SDS011;1015;49.756;6.994;2023-01-25T06:46:21;36.03;;;15.73;;
2021;SDS011;1015;49.756;6.994;2023-01-25T06:48:48;58.27;;;18.17;;
2021;SDS011;1015;49.756;6.994;2023-01-25T06:51:15;59.07;;;17.33;;
2021;SDS011;1015;49.756;6.994;2023-01-25T06:53:44;41.77;;;15.40;;
2021;SDS011;1015;49.756;6.994;2023-01-25T06:56:12;47.57;;;17.90;;
2021;SDS011;1015;49.756;6.994;2023-01-25T06:58:39;87.03;;;15.93;;
2021;SDS011;1015;49.756;6.994;2023-01-25T07:01:10;33.67;;;14.40;;
2021;SDS011;1015;49.756;6.994;2023-01-25T07:03:38;52.87;;;17.40;;
2021;SDS011;1015;49.756;6.994;2023-01-25T07:06:06;44.93;;;15.60;;
2021;SDS011;1015;49.756;6.994;2023-01-25T07:08:34;45.47;;;15.00;;
2021;SDS011;1015;49.756;6.994;2023-01-25T07:11:02;34.97;;;15.87;;
2021;SDS011;1015;49.756;6.994;2023-01-25T07:13:30;54.97;;;16.90;;
2021;SDS011;1015;49.756;6.994;2023-01-25T07:15:59;42.20;;;15.73;;
2021;SDS011;1015;49.756;6.994;2023-01-25T07:18:31;54.40;;;19.83;;
2021;SDS011;1015;49.756;6.994;2023-01-25T07:21:01;51.93;;;24.33;;
2021;SDS011;1015;49.756;6.994;2023-01-25T07:23:29;46.37;;;17.80;;
2021;SDS011;1015;49.756;6.994;2023-01-25T07:25:58;40.20;;;14.13;;
2021;SDS011;1015;49.756;6.994;2023-01-25T07:28:25;55.53;;;15.30;;
2021;SDS011;1015;49.756;6.994;2023-01-25T07:30:52;49.33;;;17.47;;
2021;SDS011;1015;49.756;6.994;2023-01-25T07:33:21;46.60;;;16.07;;
2021;SDS011;1015;49.756;6.994;2023-01-25T07:35:49;65.20;;;16.97;;
2021;SDS011;1015;49.756;6.994;2023-01-25T07:38:16;38.50;;;17.33;;
2021;SDS011;1015;49.756;6.994;2023-01-25T07:40:49;53.77;;;18.60;;
2021;SDS011;1015;49.756;6.994;2023-01-25T07:43:16;43.60;;;17.33;;
2021;SDS011;1015;49.756;6.994;2023-01-25T07:45:44;45.47;;;18.63;;
2021;SDS011;1015;49.756;6.994;2023-01-25T07:48:12;52.37;;;14.77;;
2021;SDS011;1015;49.756;6.994;2023-01-25T07:50:40;40.80;;;13.90;;
2021;SDS011;1015;49.756;6.994;2023-01-25T07:53:12;38.60;;;13.90;;
2021;SDS011;1015;49.756;6.994;2023-01-25T07:55:39;27.17;;;12.67;;
2021;SDS011;1015;49.756;6.994;2023-01-25T07:58:07;29.47;;;14.80;;
2021;SDS011;1015;49.756;6.994;2023-01-25T08:00:34;38.97;;;15.63;;
2021;SDS011;1015;49.756;6.994;2023-01-25T08:03:01;33.47;;;13.60;;
2021;SDS011;1015;49.756;6.994;2023-01-25T08:05:28;36.40;;;14.00;;
2021;SDS011;1015;49.756;6.994;2023-01-25T08:07:56;32.90;;;13.20;;
2021;SDS011;1015;49.756;6.994;2023-01-25T08:10:24;49.17;;;13.60;;
2021;SDS011;1015;49.756;6.994;2023-01-25T08:12:52;40.20;;;13.47;;
2021;SDS011;1015;49.756;6.994;2023-01-25T08:15:19;34.80;;;13.47;;
2021;SDS011;1015;49.756;6.994;2023-01-25T08:17:46;37.53;;;16.03;;
2021;SDS011;1015;49.756;6.994;2023-01-25T08:20:14;42.33;;;12.83;;
2021;SDS011;1015;49.756;6.994;2023-01-25T08:22:41;26.17;;;11.90;;
2021;SDS011;1015;49.756;6.994;2023-01-25T08:25:09;40.50;;;15.80;;
2021;SDS011;1015;49.756;6.994;2023-01-25T08:27:37;29.73;;;10.67;;
2021;SDS011;1015;49.756;6.994;2023-01-25T08:30:05;57.87;;;13.47;;
2021;SDS011;1015;49.756;6.994;2023-01-25T08:32:33;45.40;;;15.20;;
2021;SDS011;1015;49.756;6.994;2023-01-25T08:35:00;33.50;;;12.30;;
2021;SDS011;1015;49.756;6.994;2023-01-25T08:37:28;28.47;;;11.27;;
2021;SDS011;1015;49.756;6.994;2023-01-25T08:39:55;21.37;;;11.87;;
2021;SDS011;1015;49.756;6.994;2023-01-25T08:42:23;26.13;;;10.53;;
2021;SDS011;1015;49.756;6.994;2023-01-25T08:44:52;36.80;;;14.17;;
2021;SDS011;1015;49.756;6.994;2023-01-25T08:47:19;29.00;;;13.90;;
2021;SDS011;1015;49.756;6.994;2023-01-25T08:49:47;28.73;;;14.43;;
2021;SDS011;1015;49.756;6.994;2023-01-25T08:52:15;26.70;;;12.17;;
2021;SDS011;1015;49.756;6.994;2023-01-25T08:54:42;27.80;;;14.30;;
2021;SDS011;1015;49.756;6.994;2023-01-25T08:57:09;27.53;;;14.73;;
2021;SDS011;1015;49.756;6.994;2023-01-25T08:59:36;29.40;;;14.90;;
2021;SDS011;1015;49.756;6.994;2023-01-25T09:02:05;40.13;;;14.47;;
2021;SDS011;1015;49.756;6.994;2023-01-25T09:04:32;26.63;;;11.90;;
2021;SDS011;1015;49.756;6.994;2023-01-25T09:07:00;28.83;;;12.40;;
2021;SDS011;1015;49.756;6.994;2023-01-25T09:09:27;27.63;;;13.10;;
2021;SDS011;1015;49.756;6.994;2023-01-25T09:11:55;30.80;;;12.33;;
2021;SDS011;1015;49.756;6.994;2023-01-25T09:14:22;31.33;;;12.50;;
2021;SDS011;1015;49.756;6.994;2023-01-25T09:16:49;24.00;;;12.47;;
2021;SDS011;1015;49.756;6.994;2023-01-25T09:19:18;23.30;;;11.50;;
2021;SDS011;1015;49.756;6.994;2023-01-25T09:21:45;23.90;;;11.10;;
2021;SDS011;1015;49.756;6.994;2023-01-25T09:24:13;22.87;;;12.93;;
2021;SDS011;1015;49.756;6.994;2023-01-25T09:26:41;25.60;;;13.50;;
2021;SDS011;1015;49.756;6.994;2023-01-25T09:29:08;28.27;;;13.53;;
2021;SDS011;1015;49.756;6.994;2023-01-25T09:31:36;26.87;;;12.77;;
2021;SDS011;1015;49.756;6.994;2023-01-25T09:34:07;24.13;;;12.57;;
2021;SDS011;1015;49.756;6.994;2023-01-25T09:36:38;27.70;;;13.63;;
2021;SDS011;1015;49.756;6.994;2023-01-25T09:39:05;24.10;;;14.87;;
2021;SDS011;1015;49.756;6.994;2023-01-25T09:41:45;25.97;;;14.30;;
2021;SDS011;1015;49.756;6.994;2023-01-25T09:47:02;33.83;;;12.40;;
2021;SDS011;1015;49.756;6.994;2023-01-25T09:49:34;31.60;;;12.13;;
2021;SDS011;1015;49.756;6.994;2023-01-25T09:52:11;28.90;;;12.03;;
2021;SDS011;1015;49.756;6.994;2023-01-25T09:54:40;34.37;;;13.37;;
2021;SDS011;1015;49.756;6.994;2023-01-25T09:57:10;22.80;;;12.27;;
2021;SDS011;1015;49.756;6.994;2023-01-25T09:59:40;46.53;;;13.07;;
2021;SDS011;1015;49.756;6.994;2023-01-25T10:02:12;30.30;;;12.57;;
2021;SDS011;1015;49.756;6.994;2023-01-25T10:04:43;32.00;;;13.07;;
2021;SDS011;1015;49.756;6.994;2023-01-25T10:07:15;24.03;;;12.90;;
2021;SDS011;1015;49.756;6.994;2023-01-25T10:09:46;29.90;;;14.83;;
2021;SDS011;1015;49.756;6.994;2023-01-25T10:12:17;30.47;;;13.87;;
2021;SDS011;1015;49.756;6.994;2023-01-25T10:14:45;31.03;;;11.43;;
2021;SDS011;1015;49.756;6.994;2023-01-25T10:17:13;28.03;;;12.57;;
2021;SDS011;1015;49.756;6.994;2023-01-25T10:19:48;25.53;;;12.47;;
2021;SDS011;1015;49.756;6.994;2023-01-25T10:22:19;20.77;;;11.60;;
2021;SDS011;1015;49.756;6.994;2023-01-25T10:24:52;43.57;;;13.43;;
2021;SDS011;1015;49.756;6.994;2023-01-25T10:27:24;24.13;;;12.37;;
2021;SDS011;1015;49.756;6.994;2023-01-25T10:29:55;26.07;;;11.53;;
2021;SDS011;1015;49.756;6.994;2023-01-25T10:32:23;39.83;;;13.10;;
2021;SDS011;1015;49.756;6.994;2023-01-25T10:34:52;19.37;;;12.00;;
2021;SDS011;1015;49.756;6.994;2023-01-25T10:37:23;44.47;;;14.50;;
2021;SDS011;1015;49.756;6.994;2023-01-25T10:39:54;24.47;;;14.03;;
2021;SDS011;1015;49.756;6.994;2023-01-25T10:42:23;19.87;;;10.93;;
2021;SDS011;1015;49.756;6.994;2023-01-25T10:44:52;22.50;;;13.03;;
2021;SDS011;1015;49.756;6.994;2023-01-25T10:47:21;23.30;;;13.60;;
2021;SDS011;1015;49.756;6.994;2023-01-25T10:49:49;22.50;;;13.37;;
2021;SDS011;1015;49.756;6.994;2023-01-25T10:52:17;20.73;;;12.03;;
2021;SDS011;1015;49.756;6.994;2023-01-25T10:54:47;26.93;;;14.00;;
2021;SDS011;1015;49.756;6.994;2023-01-25T10:57:16;32.13;;;11.50;;
2021;SDS011;1015;49.756;6.994;2023-01-25T10:59:44;23.10;;;12.23;;
2021;SDS011;1015;49.756;6.994;2023-01-25T11:04:58;18.80;;;11.57;;
2021;SDS011;1015;49.756;6.994;2023-01-25T11:07:41;22.93;;;13.10;;
2021;SDS011;1015;49.756;6.994;2023-01-25T11:10:15;23.50;;;12.47;;
2021;SDS011;1015;49.756;6.994;2023-01-25T11:13:04;16.50;;;10.20;;
2021;SDS011;1015;49.756;6.994;2023-01-25T11:15:37;18.23;;;11.17;;
2021;SDS011;1015;49.756;6.994;2023-01-25T11:18:05;15.20;;;9.80;;
2021;SDS011;1015;49.756;6.994;2023-01-25T11:20:33;18.93;;;10.47;;
2021;SDS011;1015;49.756;6.994;2023-01-25T11:23:00;16.53;;;10.60;;
2021;SDS011;1015;49.756;6.994;2023-01-25T11:25:29;15.03;;;10.03;;
2021;SDS011;1015;49.756;6.994;2023-01-25T11:28:09;24.10;;;14.50;;
2021;SDS011;1015;49.756;6.994;2023-01-25T11:30:37;17.53;;;11.20;;
2021;SDS011;1015;49.756;6.994;2023-01-25T11:33:08;20.53;;;12.37;;
2021;SDS011;1015;49.756;6.994;2023-01-25T11:35:36;21.80;;;11.93;;
2021;SDS011;1015;49.756;6.994;2023-01-25T11:38:08;25.97;;;11.50;;
2021;SDS011;1015;49.756;6.994;2023-01-25T11:40:40;33.03;;;12.27;;
2021;SDS011;1015;49.756;6.994;2023-01-25T11:43:15;22.00;;;12.97;;
2021;SDS011;1015;49.756;6.994;2023-01-25T11:45:52;33.33;;;17.50;;
2021;SDS011;1015;49.756;6.994;2023-01-25T11:48:33;21.60;;;11.70;;
2021;SDS011;1015;49.756;6.994;2023-01-25T11:51:09;21.40;;;10.47;;
2021;SDS011;1015;49.756;6.994;2023-01-25T11:53:47;18.30;;;11.17;;
2021;SDS011;1015;49.756;6.994;2023-01-25T11:56:19;17.17;;;10.90;;
2021;SDS011;1015;49.756;6.994;2023-01-25T11:58:55;15.80;;;10.10;;
2021;SDS011;1015;49.756;6.994;2023-01-25T12:01:26;15.50;;;10.30;;
2021;SDS011;1015;49.756;6.994;2023-01-25T12:04:12;17.10;;;10.83;;
2021;SDS011;1015;49.756;6.994;2023-01-25T12:06:48;20.80;;;11.80;;
2021;SDS011;1015;49.756;6.994;2023-01-25T12:09:25;17.20;;;10.47;;
2021;SDS011;1015;49.756;6.994;2023-01-25T12:11:59;18.00;;;12.00;;
2021;SDS011;1015;49.756;6.994;2023-01-25T12:14:32;16.77;;;10.77;;
2021;SDS011;1015;49.756;6.994;2023-01-25T12:17:18;19.17;;;11.73;;
2021;SDS011;1015;49.756;6.994;2023-01-25T12:19:52;20.03;;;12.43;;
2021;SDS011;1015;49.756;6.994;2023-01-25T12:22:31;19.03;;;11.10;;
2021;SDS011;1015;49.756;6.994;2023-01-25T12:25:02;17.40;;;11.30;;
2021;SDS011;1015;49.756;6.994;2023-01-25T12:27:41;16.60;;;10.50;;
2021;SDS011;1015;49.756;6.994;2023-01-25T12:30:12;14.70;;;9.20;;
2021;SDS011;1015;49.756;6.994;2023-01-25T12:32:43;21.30;;;12.40;;
2021;SDS011;1015;49.756;6.994;2023-01-25T12:35:21;19.97;;;12.70;;
2021;SDS011;1015;49.756;6.994;2023-01-25T12:37:50;20.20;;;11.30;;
2021;SDS011;1015;49.756;6.994;2023-01-25T12:40:19;12.77;;;9.50;;
2021;SDS011;1015;49.756;6.994;2023-01-25T12:42:51;15.20;;;7.70;;
2021;SDS011;1015;49.756;6.994;2023-01-25T12:45:20;14.00;;;8.27;;
2021;SDS011;1015;49.756;6.994;2023-01-25T12:47:49;11.90;;;9.00;;
2021;SDS011;1015;49.756;6.994;2023-01-25T12:50:21;12.50;;;8.27;;
2021;SDS011;1015;49.756;6.994;2023-01-25T12:52:50;14.57;;;9.80;;
2021;SDS011;1015;49.756;6.994;2023-01-25T12:55:18;15.53;;;9.33;;
2021;SDS011;1015;49.756;6.994;2023-01-25T12:57:47;12.47;;;8.47;;
2021;SDS011;1015;49.756;6.994;2023-01-25T13:00:19;14.03;;;9.50;;
2021;SDS011;1015;49.756;6.994;2023-01-25T13:02:50;18.20;;;10.63;;
2021;SDS011;1015;49.756;6.994;2023-01-25T13:05:24;18.53;;;9.10;;
2021;SDS011;1015;49.756;6.994;2023-01-25T13:07:55;12.43;;;8.60;;
2021;SDS011;1015;49.756;6.994;2023-01-25T13:10:28;12.77;;;8.90;;
2021;SDS011;1015;49.756;6.994;2023-01-25T13:12:57;15.33;;;8.37;;
2021;SDS011;1015;49.756;6.994;2023-01-25T13:15:39;12.83;;;8.97;;
2021;SDS011;1015;49.756;6.994;2023-01-25T13:20:52;12.10;;;8.07;;
2021;SDS011;1015;49.756;6.994;2023-01-25T13:23:28;13.83;;;9.17;;
2021;SDS011;1015;49.756;6.994;2023-01-25T13:28:40;15.37;;;8.73;;
2021;SDS011;1015;49.756;6.994;2023-01-25T13:31:09;15.47;;;9.80;;
2021;SDS011;1015;49.756;6.994;2023-01-25T13:33:36;17.73;;;9.33;;
2021;SDS011;1015;49.756;6.994;2023-01-25T13:38:49;14.30;;;9.13;;
2021;SDS011;1015;49.756;6.994;2023-01-25T13:41:16;15.67;;;9.17;;
2021;SDS011;1015;49.756;6.994;2023-01-25T13:43:47;15.63;;;10.17;;
2021;SDS011;1015;49.756;6.994;2023-01-25T13:46:18;17.27;;;10.40;;
2021;SDS011;1015;49.756;6.994;2023-01-25T13:48:53;15.97;;;10.27;;
2021;SDS011;1015;49.756;6.994;2023-01-25T13:51:21;15.27;;;9.63;;
2021;SDS011;1015;49.756;6.994;2023-01-25T13:53:54;15.60;;;11.23;;
2021;SDS011;1015;49.756;6.994;2023-01-25T13:56:23;17.33;;;10.17;;
2021;SDS011;1015;49.756;6.994;2023-01-25T13:58:51;15.97;;;10.70;;
2021;SDS011;1015;49.756;6.994;2023-01-25T14:01:19;14.90;;;10.10;;
2021;SDS011;1015;49.756;6.994;2023-01-25T14:03:48;14.00;;;9.00;;
2021;SDS011;1015;49.756;6.994;2023-01-25T14:06:16;15.23;;;9.97;;
2021;SDS011;1015;49.756;6.994;2023-01-25T14:08:44;13.93;;;9.17;;
2021;SDS011;1015;49.756;6.994;2023-01-25T14:11:16;14.90;;;9.63;;
2021;SDS011;1015;49.756;6.994;2023-01-25T14:13:53;17.13;;;10.07;;
2021;SDS011;1015;49.756;6.994;2023-01-25T14:16:22;15.10;;;9.40;;
2021;SDS011;1015;49.756;6.994;2023-01-25T14:18:51;14.97;;;9.47;;
2021;SDS011;1015;49.756;6.994;2023-01-25T14:21:19;15.17;;;9.80;;
2021;SDS011;1015;49.756;6.994;2023-01-25T14:23:47;15.23;;;10.63;;
2021;SDS011;1015;49.756;6.994;2023-01-25T14:26:20;16.63;;;10.53;;
2021;SDS011;1015;49.756;6.994;2023-01-25T14:28:48;14.63;;;9.70;;
2021;SDS011;1015;49.756;6.994;2023-01-25T14:31:18;13.30;;;9.40;;
2021;SDS011;1015;49.756;6.994;2023-01-25T14:33:47;17.40;;;9.37;;
2021;SDS011;1015;49.756;6.994;2023-01-25T14:36:19;19.30;;;11.73;;
2021;SDS011;1015;49.756;6.994;2023-01-25T14:38:46;16.73;;;10.07;;
2021;SDS011;1015;49.756;6.994;2023-01-25T14:41:15;17.23;;;9.70;;
2021;SDS011;1015;49.756;6.994;2023-01-25T14:43:43;19.20;;;11.50;;
2021;SDS011;1015;49.756;6.994;2023-01-25T14:46:18;16.10;;;10.10;;
2021;SDS011;1015;49.756;6.994;2023-01-25T14:48:46;19.20;;;10.60;;
2021;SDS011;1015;49.756;6.994;2023-01-25T14:51:16;18.83;;;11.50;;
2021;SDS011;1015;49.756;6.994;2023-01-25T14:53:46;18.63;;;12.00;;
2021;SDS011;1015;49.756;6.994;2023-01-25T14:56:24;17.47;;;9.27;;
2021;SDS011;1015;49.756;6.994;2023-01-25T14:58:53;19.00;;;11.20;;
2021;SDS011;1015;49.756;6.994;2023-01-25T15:01:27;20.73;;;10.63;;
2021;SDS011;1015;49.756;6.994;2023-01-25T15:03:56;20.23;;;10.17;;
2021;SDS011;1015;49.756;6.994;2023-01-25T15:06:24;30.57;;;12.03;;
2021;SDS011;1015;49.756;6.994;2023-01-25T15:08:51;24.53;;;10.70;;
2021;SDS011;1015;49.756;6.994;2023-01-25T15:11:26;35.07;;;11.90;;
2021;SDS011;1015;49.756;6.994;2023-01-25T15:14:20;20.17;;;10.50;;
2021;SDS011;1015;49.756;6.994;2023-01-25T15:16:47;39.23;;;12.30;;